createdAt,value
2017-11-10T00:01:20.658Z,18.50
2017-11-10T00:03:48.160Z,18.50
2017-11-10T00:06:15.660Z,18.50
2017-11-10T00:08:43.176Z,18.50
2017-11-10T00:11:11.453Z,18.50
2017-11-10T00:13:39.702Z,18.50
2017-11-10T00:16:07.269Z,18.50
2017-11-10T00:18:34.761Z,18.40
2017-11-10T00:21:02.267Z,18.50
2017-11-10T00:23:29.820Z,18.50
2017-11-10T00:25:57.296Z,18.50
2017-11-10T00:28:24.795Z,18.40
2017-11-10T00:31:06.704Z,18.40
2017-11-10T00:33:34.183Z,18.50
2017-11-10T00:36:02.679Z,18.40
2017-11-10T00:38:30.180Z,18.40
2017-11-10T00:40:58.622Z,18.40
2017-11-10T00:43:26.176Z,18.40
2017-11-10T00:45:53.688Z,18.40
2017-11-10T00:48:21.162Z,18.40
2017-11-10T00:50:48.692Z,18.50
2017-11-10T00:53:18.635Z,18.50
2017-11-10T00:55:46.125Z,18.50
2017-11-10T00:58:13.608Z,18.50
2017-11-10T01:00:41.872Z,18.50
2017-11-10T01:03:09.380Z,18.50
2017-11-10T01:05:36.927Z,18.50
2017-11-10T01:08:10.228Z,18.50
2017-11-10T01:10:37.747Z,18.50
2017-11-10T01:13:06.039Z,18.50
2017-11-10T01:15:44.287Z,18.50
2017-11-10T01:18:19.032Z,18.50
2017-11-10T01:20:53.063Z,18.50
2017-11-10T01:23:21.357Z,18.50
2017-11-10T01:25:48.929Z,18.50
2017-11-10T01:28:16.472Z,18.50
2017-11-10T01:30:43.997Z,18.50
2017-11-10T01:33:11.492Z,18.50
2017-11-10T01:35:39.040Z,18.40
2017-11-10T01:38:06.544Z,18.40
2017-11-10T01:40:34.061Z,18.50
2017-11-10T01:43:02.323Z,18.50
2017-11-10T01:45:30.572Z,18.50
2017-11-10T01:48:00.004Z,18.50
2017-11-10T01:50:28.292Z,18.50
2017-11-10T01:52:55.754Z,18.50
2017-11-10T01:55:23.311Z,18.50
2017-11-10T01:57:50.875Z,18.40
2017-11-10T02:00:18.392Z,18.40
2017-11-10T02:02:45.914Z,18.40
2017-11-10T02:05:13.673Z,18.40
2017-11-10T02:07:41.172Z,18.50
2017-11-10T02:10:08.671Z,18.40
2017-11-10T02:12:36.252Z,18.40
2017-11-10T02:15:03.748Z,18.40
2017-11-10T02:17:31.249Z,18.40
2017-11-10T02:19:58.744Z,18.40
2017-11-10T02:22:26.248Z,18.40
2017-11-10T02:24:54.518Z,18.40
2017-11-10T02:27:22.854Z,18.50
2017-11-10T02:29:50.331Z,18.40
2017-11-10T02:32:17.823Z,18.40
2017-11-10T02:34:51.310Z,18.40
2017-11-10T02:37:18.855Z,18.40
2017-11-10T02:39:47.113Z,18.50
2017-11-10T02:42:14.596Z,18.40
2017-11-10T02:44:42.085Z,18.50
2017-11-10T02:47:09.571Z,18.50
2017-11-10T02:49:37.067Z,18.50
2017-11-10T02:52:05.196Z,18.50
2017-11-10T02:54:32.718Z,18.50
2017-11-10T02:57:00.268Z,18.50
2017-11-10T02:59:27.760Z,18.50
2017-11-10T03:01:55.275Z,18.50
2017-11-10T03:04:23.552Z,18.50
2017-11-10T03:06:51.843Z,18.50
2017-11-10T03:09:19.363Z,18.50
2017-11-10T03:11:46.837Z,18.50
2017-11-10T03:14:15.100Z,18.50
2017-11-10T03:16:42.628Z,18.50
2017-11-10T03:19:10.145Z,18.50
2017-11-10T03:21:37.683Z,18.50
2017-11-10T03:24:05.948Z,18.50
2017-11-10T03:26:33.419Z,18.50
2017-11-10T03:29:00.903Z,18.50
2017-11-10T03:31:28.431Z,18.50
2017-11-10T03:33:56.676Z,18.50
2017-11-10T03:36:24.203Z,18.50
2017-11-10T03:38:52.412Z,18.50
2017-11-10T03:41:20.739Z,18.50
2017-11-10T03:43:48.291Z,18.50
2017-11-10T03:46:15.785Z,18.50
2017-11-10T03:48:43.302Z,18.50
2017-11-10T03:51:10.784Z,18.50
2017-11-10T03:53:38.300Z,18.50
2017-11-10T03:56:06.585Z,18.50
2017-11-10T03:58:34.835Z,18.50
2017-11-10T04:01:03.158Z,18.50
2017-11-10T04:03:30.707Z,18.50
2017-11-10T04:05:58.215Z,18.50
2017-11-10T04:08:25.696Z,18.50
2017-11-10T04:10:53.947Z,18.50
2017-11-10T04:13:21.474Z,18.50
2017-11-10T04:15:49.019Z,18.50
2017-11-10T04:18:16.499Z,18.50
2017-11-10T04:20:44.056Z,18.50
2017-11-10T04:23:11.555Z,18.50
2017-11-10T04:25:39.815Z,18.50
2017-11-10T04:28:07.385Z,18.50
2017-11-10T04:30:34.908Z,18.50
2017-11-10T04:33:02.371Z,18.50
2017-11-10T04:35:29.892Z,18.50
2017-11-10T04:37:57.414Z,18.50
2017-11-10T04:40:25.868Z,18.50
2017-11-10T04:42:53.411Z,18.50
2017-11-10T04:45:20.893Z,18.50
2017-11-10T04:47:49.148Z,18.50
2017-11-10T04:50:16.747Z,18.50
2017-11-10T04:52:44.300Z,18.50
2017-11-10T04:55:11.808Z,18.50
2017-11-10T04:57:39.324Z,18.50
2017-11-10T05:00:06.809Z,18.50
2017-11-10T05:02:34.300Z,18.50
2017-11-10T05:05:02.050Z,18.50
2017-11-10T05:07:29.526Z,18.50
2017-11-10T05:09:57.037Z,18.50
2017-11-10T05:12:26.412Z,18.50
2017-11-10T05:14:54.662Z,18.50
2017-11-10T05:17:22.156Z,18.50
2017-11-10T05:19:50.507Z,18.50
2017-11-10T05:22:18.008Z,18.50
2017-11-10T05:24:45.547Z,18.50
2017-11-10T05:27:13.826Z,18.60
2017-11-10T05:29:41.381Z,18.60
2017-11-10T05:32:09.624Z,18.60
2017-11-10T05:34:37.125Z,18.70
2017-11-10T05:37:04.672Z,18.70
2017-11-10T05:39:32.916Z,18.70
2017-11-10T05:42:00.997Z,18.70
2017-11-10T05:44:28.503Z,18.70
2017-11-10T05:46:56.045Z,18.70
2017-11-10T05:49:23.570Z,18.70
2017-11-10T05:51:51.044Z,18.70
2017-11-10T05:54:19.291Z,18.70
2017-11-10T05:56:46.782Z,18.70
2017-11-10T05:59:15.037Z,18.60
2017-11-10T06:01:42.587Z,18.60
2017-11-10T06:04:10.159Z,18.70
2017-11-10T06:06:37.651Z,18.70
2017-11-10T06:09:05.176Z,18.70
2017-11-10T06:11:32.704Z,18.70
2017-11-10T06:14:00.190Z,18.70
2017-11-10T06:16:27.708Z,18.70
2017-11-10T06:18:55.251Z,18.70
2017-11-10T06:21:22.790Z,18.70
2017-11-10T06:23:51.051Z,18.70
2017-11-10T06:26:18.546Z,18.70
2017-11-10T06:28:46.041Z,18.70
2017-11-10T06:31:13.538Z,18.70
2017-11-10T06:33:41.846Z,18.60
2017-11-10T06:36:09.372Z,18.60
2017-11-10T06:38:37.641Z,18.60
2017-11-10T06:41:05.996Z,18.60
2017-11-10T06:43:33.489Z,18.60
2017-11-10T06:46:01.141Z,18.60
2017-11-10T06:48:29.402Z,18.50
2017-11-10T06:50:57.681Z,18.50
2017-11-10T06:53:25.988Z,18.50
2017-11-10T06:55:53.484Z,18.50
2017-11-10T06:58:21.540Z,18.50
2017-11-10T07:00:49.048Z,18.50
2017-11-10T07:03:20.634Z,18.50
2017-11-10T07:05:48.191Z,18.50
2017-11-10T07:08:15.700Z,18.50
2017-11-10T07:10:44.069Z,18.50
2017-11-10T07:13:11.635Z,18.40
2017-11-10T07:15:39.944Z,18.50
2017-11-10T07:18:30.064Z,18.50
2017-11-10T07:20:57.551Z,18.40
2017-11-10T07:23:25.868Z,18.40
2017-11-10T07:25:53.365Z,18.40
2017-11-10T07:28:20.935Z,18.40
2017-11-10T07:30:48.499Z,18.40
2017-11-10T07:33:16.067Z,18.50
2017-11-10T07:35:46.461Z,18.70
2017-11-10T07:38:19.062Z,18.60
2017-11-10T07:40:46.601Z,18.70
2017-11-10T07:43:14.146Z,18.70
2017-11-10T07:45:42.606Z,18.70
2017-11-10T07:48:10.174Z,18.70
2017-11-10T07:50:38.484Z,18.60
2017-11-10T07:53:05.999Z,18.60
2017-11-10T07:55:33.534Z,18.60
2017-11-10T07:58:01.879Z,18.50
2017-11-10T08:00:30.245Z,18.50
2017-11-10T08:02:57.789Z,18.50
2017-11-10T08:05:25.305Z,18.50
2017-11-10T08:07:52.787Z,18.50
2017-11-10T08:10:24.639Z,18.50
2017-11-10T08:12:57.649Z,18.50
2017-11-10T08:15:25.701Z,18.50
2017-11-10T08:21:08.389Z,18.50
2017-11-10T08:23:38.359Z,18.50
2017-11-10T08:26:10.454Z,18.50
2017-11-10T08:28:38.949Z,18.50
2017-11-10T08:31:13.958Z,18.50
2017-11-10T08:33:42.225Z,18.50
2017-11-10T08:36:18.488Z,18.50
2017-11-10T08:38:54.041Z,18.50
2017-11-10T08:41:23.247Z,18.50
2017-11-10T08:43:57.140Z,18.50
2017-11-10T08:46:25.215Z,18.60
2017-11-10T08:48:52.797Z,18.60
2017-11-10T08:51:20.345Z,18.60
2017-11-10T08:53:47.885Z,18.60
2017-11-10T08:56:15.377Z,18.60
2017-11-10T08:58:43.753Z,18.60
2017-11-10T09:01:12.021Z,18.60
2017-11-10T09:03:41.145Z,18.60
2017-11-10T09:06:08.748Z,18.60
2017-11-10T09:08:36.285Z,18.60
2017-11-10T09:11:03.800Z,18.60
2017-11-10T09:13:32.423Z,18.60
2017-11-10T09:15:59.967Z,18.60
2017-11-10T09:18:27.474Z,18.60
2017-11-10T09:20:54.972Z,18.60
2017-11-10T09:23:22.517Z,18.60
2017-11-10T09:25:52.098Z,18.60
2017-11-10T09:28:21.305Z,18.60
2017-11-10T09:31:07.655Z,18.60
2017-11-10T09:33:38.652Z,18.60
2017-11-10T09:36:08.678Z,18.60
2017-11-10T09:38:39.080Z,18.60
2017-11-10T09:41:26.348Z,18.60
2017-11-10T09:44:00.456Z,18.60
2017-11-10T09:46:32.573Z,18.60
2017-11-10T09:49:07.763Z,18.60
2017-11-10T09:51:53.020Z,18.60
2017-11-10T09:54:26.175Z,18.60
2017-11-10T09:57:10.521Z,18.60
2017-11-10T09:59:48.937Z,18.60
2017-11-10T10:02:16.944Z,18.60
2017-11-10T10:05:05.420Z,18.60
2017-11-10T10:07:42.900Z,18.60
2017-11-10T10:10:16.285Z,18.60
2017-11-10T10:12:50.251Z,18.60
2017-11-10T10:15:20.629Z,18.60
2017-11-10T10:21:05.149Z,18.60
2017-11-10T10:26:18.710Z,18.60
2017-11-10T10:28:46.268Z,18.60
2017-11-10T10:31:39.100Z,18.60
2017-11-10T10:34:13.401Z,18.60
2017-11-10T10:36:40.938Z,18.60
2017-11-10T10:39:09.209Z,18.70
2017-11-10T10:41:36.759Z,18.60
2017-11-10T10:44:05.124Z,18.70
2017-11-10T10:46:32.757Z,18.60
2017-11-10T10:49:00.275Z,18.60
2017-11-10T10:51:27.768Z,18.60
2017-11-10T10:53:55.242Z,18.60
2017-11-10T10:56:22.725Z,18.60
2017-11-10T10:58:51.007Z,18.60
2017-11-10T11:01:18.489Z,18.60
2017-11-10T11:03:46.009Z,18.60
2017-11-10T11:06:13.479Z,18.60
2017-11-10T11:08:41.009Z,18.60
2017-11-10T11:11:08.566Z,18.60
2017-11-10T11:13:37.853Z,18.60
2017-11-10T11:16:07.410Z,18.60
2017-11-10T11:18:34.934Z,18.60
2017-11-10T11:21:05.340Z,18.50
2017-11-10T11:23:47.367Z,18.50
2017-11-10T11:26:16.039Z,18.50
2017-11-10T11:28:47.718Z,18.50
2017-11-10T11:31:15.838Z,18.50
2017-11-10T11:33:43.344Z,18.60
2017-11-10T11:36:10.855Z,18.60
2017-11-10T11:38:38.380Z,18.60
2017-11-10T11:41:05.888Z,18.60
2017-11-10T11:43:33.396Z,18.60
2017-11-10T11:46:00.924Z,18.60
2017-11-10T11:48:28.441Z,18.60
2017-11-10T11:50:55.957Z,18.60
2017-11-10T11:53:24.220Z,18.60
2017-11-10T11:55:51.760Z,18.60
2017-11-10T11:58:19.324Z,18.60
2017-11-10T12:00:46.869Z,18.60
2017-11-10T12:03:14.421Z,18.60
2017-11-10T12:05:41.964Z,18.60
2017-11-10T12:08:09.445Z,18.60
2017-11-10T12:10:37.813Z,18.60
2017-11-10T12:13:05.305Z,18.60
2017-11-10T12:15:33.555Z,18.60
2017-11-10T12:18:01.114Z,18.50
2017-11-10T12:20:28.701Z,18.50
2017-11-10T12:23:10.004Z,18.50
2017-11-10T12:25:37.641Z,18.50
2017-11-10T12:28:05.914Z,18.50
2017-11-10T12:30:34.176Z,18.50
2017-11-10T12:33:01.877Z,18.50
2017-11-10T12:35:29.392Z,18.50
2017-11-10T12:37:56.981Z,18.40
2017-11-10T12:40:25.268Z,18.50
2017-11-10T12:43:03.087Z,18.40
2017-11-10T12:45:30.724Z,18.50
2017-11-10T12:47:58.223Z,18.50
2017-11-10T12:50:25.741Z,18.50
2017-11-10T12:52:53.237Z,18.50
2017-11-10T12:55:20.827Z,18.50
2017-11-10T12:57:50.025Z,18.50
2017-11-10T13:00:18.513Z,18.50
2017-11-10T13:02:46.777Z,18.50
2017-11-10T13:05:14.320Z,18.40
2017-11-10T13:07:41.863Z,18.40
2017-11-10T13:10:21.058Z,18.40
2017-11-10T13:12:51.497Z,18.40
2017-11-10T13:15:19.024Z,18.40
2017-11-10T13:17:47.324Z,18.30
2017-11-10T13:20:14.813Z,18.30
2017-11-10T13:22:42.340Z,18.30
2017-11-10T13:25:09.902Z,18.30
2017-11-10T13:27:41.432Z,18.30
2017-11-10T13:30:09.756Z,18.30
2017-11-10T13:32:37.241Z,18.30
2017-11-10T13:35:04.711Z,18.30
2017-11-10T13:37:32.244Z,18.30
2017-11-10T13:39:59.745Z,18.40
2017-11-10T13:42:27.242Z,18.40
2017-11-10T13:44:54.726Z,18.30
2017-11-10T13:50:46.372Z,18.40
2017-11-10T13:53:13.932Z,18.30
2017-11-10T13:55:41.451Z,18.40
2017-11-10T13:58:08.997Z,18.40
2017-11-10T14:00:49.242Z,18.40
2017-11-10T14:03:16.825Z,18.50
2017-11-10T14:05:45.123Z,18.50
2017-11-10T14:08:18.538Z,18.50
2017-11-10T14:10:46.073Z,18.50
2017-11-10T14:13:13.591Z,18.50
2017-11-10T14:15:41.107Z,18.50
2017-11-10T14:18:08.625Z,18.50
2017-11-10T14:20:40.381Z,18.50
2017-11-10T14:23:07.889Z,18.50
2017-11-10T14:25:45.534Z,18.50
2017-11-10T14:28:13.046Z,18.50
2017-11-10T14:30:40.552Z,18.50
2017-11-10T14:33:08.027Z,18.50
2017-11-10T14:35:35.583Z,18.50
2017-11-10T14:38:03.065Z,18.50
2017-11-10T14:40:30.590Z,18.40
2017-11-10T14:42:58.106Z,18.40
2017-11-10T14:45:25.669Z,18.40
2017-11-10T14:47:53.160Z,18.40
2017-11-10T14:50:20.652Z,18.40
2017-11-10T14:52:48.264Z,18.30
2017-11-10T14:55:15.774Z,18.30
2017-11-10T14:57:43.253Z,18.30
2017-11-10T15:00:11.531Z,18.30
2017-11-10T15:02:57.304Z,18.20
2017-11-10T15:05:28.138Z,18.20
2017-11-10T15:07:55.715Z,18.30
2017-11-10T15:10:26.816Z,18.30
2017-11-10T15:54:19.359Z,17.30
2017-11-10T16:14:00.025Z,16.70
2017-11-10T16:16:32.625Z,16.70
2017-11-10T16:19:00.152Z,16.80
2017-11-10T16:21:28.043Z,16.80
2017-11-10T16:23:59.129Z,16.90
2017-11-10T16:26:26.664Z,16.80
2017-11-10T16:28:54.152Z,16.90
2017-11-10T16:31:21.692Z,17.00
2017-11-10T16:33:49.219Z,17.00
2017-11-10T16:36:17.514Z,17.00
2017-11-10T16:38:45.041Z,17.00
2017-11-10T16:41:13.361Z,17.10
2017-11-10T16:43:40.895Z,17.00
2017-11-10T16:46:14.770Z,17.10
2017-11-10T16:48:44.894Z,17.10
2017-11-10T16:51:12.411Z,17.10
2017-11-10T16:53:39.914Z,17.10
2017-11-10T16:56:07.428Z,17.10
2017-11-10T16:58:35.012Z,17.10
2017-11-10T17:01:18.637Z,17.00
2017-11-10T17:09:59.039Z,16.60
2017-11-10T17:12:29.121Z,16.50
2017-11-10T17:14:56.743Z,16.50
2017-11-10T17:17:24.236Z,16.60
2017-11-10T17:20:02.799Z,16.60
2017-11-10T17:22:30.267Z,16.70
2017-11-10T17:24:58.388Z,16.70
2017-11-10T17:27:26.693Z,16.80
2017-11-10T17:29:54.176Z,16.80
2017-11-10T17:32:21.658Z,16.80
2017-11-10T17:34:49.186Z,16.90
2017-11-10T17:37:16.776Z,16.90
2017-11-10T17:39:54.112Z,17.00
2017-11-10T17:42:21.603Z,16.90
2017-11-10T17:47:42.067Z,16.90
2017-11-10T17:50:09.582Z,16.80
2017-11-10T17:52:37.874Z,16.80
2017-11-10T17:55:05.490Z,16.70
2017-11-10T17:57:36.524Z,16.50
2017-11-10T18:00:04.042Z,16.40
2017-11-10T18:02:31.616Z,16.30
2017-11-10T18:05:05.572Z,16.30
2017-11-10T18:07:33.164Z,16.40
2017-11-10T18:10:00.816Z,16.40
2017-11-10T18:12:28.360Z,16.50
2017-11-10T18:14:56.699Z,16.50
2017-11-10T18:17:24.231Z,16.50
2017-11-10T18:19:51.791Z,16.60
2017-11-10T18:22:25.816Z,16.60
2017-11-10T18:24:53.394Z,16.60
2017-11-10T18:27:34.805Z,16.70
2017-11-10T18:30:11.206Z,16.70
2017-11-10T18:32:38.802Z,16.70
2017-11-10T18:35:06.357Z,16.80
2017-11-10T18:37:33.858Z,16.80
2017-11-10T18:40:11.752Z,16.80
2017-11-10T18:42:41.021Z,16.80
2017-11-10T18:45:08.625Z,16.80
2017-11-10T18:47:36.493Z,16.80
2017-11-10T18:50:04.067Z,16.80
2017-11-10T18:52:45.698Z,16.80
2017-11-10T18:55:17.275Z,16.80
2017-11-10T18:57:44.881Z,16.80
2017-11-10T19:00:29.150Z,16.80
2017-11-10T19:02:56.627Z,16.80
2017-11-10T19:05:24.124Z,16.80
2017-11-10T19:07:51.616Z,16.80
2017-11-10T19:10:21.708Z,16.80
2017-11-10T19:12:49.236Z,16.80
2017-11-10T19:15:17.054Z,16.70
2017-11-10T19:17:55.120Z,16.30
2017-11-10T19:20:23.387Z,15.90
2017-11-10T19:22:50.957Z,15.90
2017-11-10T19:28:11.660Z,16.10
2017-11-10T19:30:39.927Z,16.30
2017-11-10T19:33:07.529Z,16.30
2017-11-10T19:35:35.084Z,16.30
2017-11-10T19:38:02.641Z,16.20
2017-11-10T19:40:30.205Z,16.30
2017-11-10T19:42:57.709Z,16.30
2017-11-10T19:45:31.381Z,16.40
2017-11-10T19:48:02.989Z,16.40
2017-11-10T19:50:30.498Z,16.50
2017-11-10T19:52:58.047Z,16.50
2017-11-10T19:55:25.562Z,16.80
2017-11-10T19:57:53.092Z,16.70
2017-11-10T20:00:20.609Z,16.60
2017-11-10T20:02:48.133Z,16.60
2017-11-10T20:05:20.702Z,16.50
2017-11-10T20:07:48.227Z,16.50
2017-11-10T20:10:15.686Z,16.50
2017-11-10T20:12:43.209Z,16.40
2017-11-10T20:15:11.321Z,16.20
2017-11-10T20:17:38.822Z,16.20
2017-11-10T20:20:07.069Z,16.30
2017-11-10T20:22:36.584Z,16.30
2017-11-10T20:25:04.073Z,16.30
2017-11-10T20:27:31.559Z,16.20
2017-11-10T20:29:59.577Z,16.20
2017-11-10T20:32:27.859Z,16.30
2017-11-10T20:34:56.117Z,16.40
2017-11-10T20:37:24.214Z,16.40
2017-11-10T20:39:51.704Z,16.50
2017-11-10T20:42:19.179Z,16.50
2017-11-10T20:44:46.698Z,16.60
2017-11-10T20:47:14.232Z,16.70
2017-11-10T20:49:42.505Z,16.80
2017-11-10T20:52:10.779Z,16.70
2017-11-10T20:54:39.020Z,16.80
2017-11-10T20:57:06.483Z,16.80
2017-11-10T20:59:33.996Z,16.70
2017-11-10T21:02:01.478Z,16.70
2017-11-10T21:04:28.956Z,16.70
2017-11-10T21:06:56.435Z,16.80
2017-11-10T21:09:23.940Z,16.70
2017-11-10T21:11:51.441Z,16.80
2017-11-10T21:14:18.941Z,16.80
2017-11-10T21:16:46.425Z,16.80
2017-11-10T21:19:13.933Z,16.80
2017-11-10T21:21:41.447Z,16.80
2017-11-10T21:24:08.932Z,16.80
2017-11-10T21:26:36.429Z,16.80
2017-11-10T21:29:03.910Z,16.80
2017-11-10T21:31:31.397Z,16.80
2017-11-10T21:33:58.870Z,16.70
2017-11-10T21:36:27.129Z,16.70
2017-11-10T21:38:54.641Z,16.60
2017-11-10T21:41:22.120Z,16.60
2017-11-10T21:43:49.610Z,16.50
2017-11-10T21:46:18.976Z,16.60
2017-11-10T21:48:46.529Z,16.60
2017-11-10T21:51:14.092Z,16.60
2017-11-10T21:53:42.236Z,16.60
2017-11-10T21:56:09.741Z,16.70
2017-11-10T21:58:37.220Z,16.70
2017-11-10T22:01:04.746Z,16.70
2017-11-10T22:03:32.239Z,16.70
2017-11-10T22:06:00.496Z,16.60
2017-11-10T22:08:29.500Z,16.60
2017-11-10T22:10:57.009Z,16.60
2017-11-10T22:13:24.501Z,16.60
2017-11-10T22:15:52.018Z,16.60
2017-11-10T22:18:20.490Z,16.60
2017-11-10T22:20:51.516Z,16.60
2017-11-10T22:23:19.010Z,16.60
2017-11-10T22:25:48.423Z,16.70
2017-11-10T22:28:15.998Z,16.70
2017-11-10T22:30:43.506Z,16.70
2017-11-10T22:33:11.037Z,16.70
2017-11-10T22:35:38.544Z,16.70
2017-11-10T22:38:06.024Z,16.80
2017-11-10T22:40:33.519Z,16.70
2017-11-10T22:43:01.014Z,16.70
2017-11-10T22:45:28.482Z,16.70
2017-11-10T22:47:55.955Z,16.70
2017-11-10T22:50:23.436Z,16.70
2017-11-10T22:52:51.688Z,16.70
2017-11-10T22:55:19.150Z,16.70
2017-11-10T22:57:46.629Z,16.60
2017-11-10T23:00:15.476Z,16.60
2017-11-10T23:02:43.005Z,16.60
2017-11-10T23:05:11.416Z,16.60
2017-11-10T23:07:38.940Z,16.60
2017-11-10T23:10:06.504Z,16.60
2017-11-10T23:12:34.000Z,16.70
2017-11-10T23:15:01.489Z,16.70
2017-11-10T23:17:29.752Z,16.60
2017-11-10T23:19:57.987Z,16.60
2017-11-10T23:22:25.456Z,16.60
2017-11-10T23:24:52.939Z,16.60
2017-11-10T23:27:20.447Z,16.60
2017-11-10T23:29:47.939Z,16.70
2017-11-10T23:32:16.367Z,16.70
2017-11-10T23:34:43.864Z,16.80
2017-11-10T23:37:11.380Z,16.80
2017-11-10T23:39:38.883Z,16.80
2017-11-10T23:42:06.398Z,16.80
2017-11-10T23:44:33.884Z,16.80
2017-11-10T23:47:01.399Z,16.80
2017-11-10T23:49:29.628Z,16.80
2017-11-10T23:51:57.131Z,16.80
2017-11-10T23:54:24.588Z,16.80
2017-11-10T23:56:52.075Z,16.80
2017-11-10T23:59:19.594Z,16.90
